createdAt,value
2022-11-13T00:01:11.508Z,2.68
2022-11-13T00:03:38.513Z,2.73
2022-11-13T00:06:05.252Z,2.77
2022-11-13T00:08:31.880Z,2.91
2022-11-13T00:11:13.186Z,3.08
2022-11-13T00:13:39.707Z,3.09
2022-11-13T00:16:10.639Z,3.14
2022-11-13T00:18:37.982Z,2.73
2022-11-13T00:21:22.254Z,2.82
2022-11-13T00:23:49.657Z,3.30
2022-11-13T00:26:21.869Z,3.22
2022-11-13T00:28:55.840Z,3.10
2022-11-13T00:31:23.252Z,3.06
2022-11-13T00:36:36.911Z,3.16
2022-11-13T00:39:03.935Z,3.24
2022-11-13T00:41:30.838Z,2.94
2022-11-13T00:43:57.419Z,2.46
2022-11-13T00:46:23.965Z,2.33
2022-11-13T00:48:50.584Z,2.40
2022-11-13T00:51:17.234Z,2.68
2022-11-13T00:53:43.855Z,2.51
2022-11-13T00:56:10.582Z,2.31
2022-11-13T00:58:37.186Z,2.72
2022-11-13T01:01:10.537Z,2.75
2022-11-13T01:03:37.535Z,2.86
2022-11-13T01:06:31.898Z,2.91
2022-11-13T01:09:02.378Z,3.09
2022-11-13T01:11:30.411Z,3.08
2022-11-13T01:13:57.057Z,3.06
2022-11-13T01:16:25.899Z,2.85
2022-11-13T01:18:55.285Z,2.69
2022-11-13T01:21:26.129Z,2.74
2022-11-13T01:23:54.519Z,2.87
2022-11-13T01:26:24.615Z,2.58
2022-11-13T01:28:51.373Z,2.50
2022-11-13T01:31:22.307Z,2.64
2022-11-13T01:33:49.283Z,2.76
2022-11-13T01:36:19.129Z,2.44
2022-11-13T01:38:46.424Z,2.41
2022-11-13T01:41:23.559Z,2.51
2022-11-13T01:43:51.530Z,2.42
2022-11-13T01:46:26.507Z,2.55
2022-11-13T01:48:57.636Z,2.45
2022-11-13T01:51:35.224Z,2.48
2022-11-13T01:54:07.080Z,2.41
2022-11-13T01:56:33.759Z,2.39
2022-11-13T01:59:10.412Z,2.30
2022-11-13T02:01:37.415Z,2.31
2022-11-13T02:04:04.273Z,2.29
2022-11-13T02:06:40.919Z,2.26
2022-11-13T02:09:09.509Z,2.46
2022-11-13T02:11:37.913Z,2.33
2022-11-13T02:14:05.531Z,2.16
2022-11-13T02:16:37.799Z,2.20
2022-11-13T02:19:12.891Z,2.25
2022-11-13T02:21:52.976Z,2.45
2022-11-13T02:24:22.991Z,2.27
2022-11-13T02:26:52.072Z,2.15
2022-11-13T02:29:18.873Z,2.06
2022-11-13T02:31:45.447Z,2.45
2022-11-13T02:34:12.164Z,2.39
2022-11-13T02:36:38.799Z,2.59
2022-11-13T02:39:09.368Z,2.34
2022-11-13T02:41:38.383Z,2.12
2022-11-13T02:44:06.634Z,2.04
2022-11-13T02:46:34.420Z,1.74
2022-11-13T02:49:00.983Z,1.64
2022-11-13T02:51:27.560Z,1.66
2022-11-13T02:53:54.598Z,1.88
2022-11-13T02:56:21.679Z,1.96
2022-11-13T02:58:48.287Z,2.13
2022-11-13T03:01:14.984Z,1.55
2022-11-13T03:03:56.976Z,2.28
2022-11-13T03:06:24.775Z,2.20
2022-11-13T03:08:51.358Z,2.30
2022-11-13T03:11:17.914Z,2.31
2022-11-13T03:13:44.547Z,2.31
2022-11-13T03:16:16.680Z,2.22
2022-11-13T03:18:43.574Z,2.23
2022-11-13T03:21:14.891Z,2.17
2022-11-13T03:23:42.337Z,2.28
2022-11-13T03:26:11.211Z,2.19
2022-11-13T03:28:38.295Z,2.44
2022-11-13T03:31:05.250Z,2.42
2022-11-13T03:33:31.918Z,2.35
2022-11-13T03:35:58.608Z,2.47
2022-11-13T03:38:26.143Z,2.27
2022-11-13T03:40:53.089Z,2.11
2022-11-13T03:43:19.875Z,2.55
2022-11-13T03:45:47.532Z,2.27
2022-11-13T03:48:15.337Z,1.79
2022-11-13T03:50:54.175Z,2.01
2022-11-13T03:53:21.059Z,1.81
2022-11-13T03:55:47.899Z,1.90
2022-11-13T03:58:14.556Z,2.00
2022-11-13T04:00:42.660Z,1.71
2022-11-13T04:03:09.251Z,1.87
2022-11-13T04:05:35.877Z,1.84
2022-11-13T04:08:02.613Z,1.86
2022-11-13T04:10:29.410Z,1.87
2022-11-13T04:12:56.054Z,2.16
2022-11-13T04:15:23.051Z,2.07
2022-11-13T04:17:50.179Z,2.24
2022-11-13T04:20:17.216Z,1.92
2022-11-13T04:22:46.984Z,1.79
2022-11-13T04:25:13.559Z,1.87
2022-11-13T04:27:40.138Z,1.78
2022-11-13T04:30:08.099Z,1.63
2022-11-13T04:32:37.793Z,1.67
2022-11-13T04:35:04.697Z,1.45
2022-11-13T04:37:31.349Z,1.32
2022-11-13T04:39:57.912Z,1.34
2022-11-13T04:42:42.773Z,1.31
2022-11-13T04:45:09.820Z,1.48
2022-11-13T04:47:36.471Z,1.44
2022-11-13T04:50:03.611Z,1.41
2022-11-13T04:52:30.252Z,1.65
2022-11-13T04:54:57.220Z,1.57
2022-11-13T04:57:23.871Z,1.45
2022-11-13T04:59:50.619Z,1.43
2022-11-13T05:02:17.216Z,1.34
2022-11-13T05:04:43.827Z,1.21
2022-11-13T05:07:11.226Z,1.66
2022-11-13T05:09:37.929Z,1.74
2022-11-13T05:12:07.918Z,1.93
2022-11-13T05:14:38.933Z,1.52
2022-11-13T05:17:06.852Z,1.34
2022-11-13T05:19:33.723Z,1.41
2022-11-13T05:22:01.126Z,1.52
2022-11-13T05:24:27.876Z,1.58
2022-11-13T05:26:54.688Z,1.36
2022-11-13T05:29:21.777Z,1.47
2022-11-13T05:31:48.759Z,1.97
2022-11-13T05:34:15.367Z,1.63
2022-11-13T05:36:42.061Z,1.68
2022-11-13T05:39:08.856Z,1.74
2022-11-13T05:41:36.375Z,1.95
2022-11-13T05:44:03.043Z,1.75
2022-11-13T05:46:30.244Z,1.85
2022-11-13T05:48:59.216Z,1.66
2022-11-13T05:51:28.689Z,1.69
2022-11-13T05:53:55.646Z,1.70
2022-11-13T05:56:25.826Z,1.89
2022-11-13T05:58:53.596Z,1.92
2022-11-13T06:01:27.636Z,1.97
2022-11-13T06:03:59.454Z,1.64
2022-11-13T06:06:27.690Z,1.67
2022-11-13T06:08:56.351Z,1.65
2022-11-13T06:11:25.391Z,1.77
2022-11-13T06:13:53.222Z,1.69
2022-11-13T06:16:25.852Z,1.31
2022-11-13T06:18:58.993Z,1.29
2022-11-13T06:21:28.700Z,1.29
2022-11-13T06:23:57.539Z,1.01
2022-11-13T06:26:31.439Z,1.00
2022-11-13T06:29:02.276Z,0.84
2022-11-13T06:31:31.407Z,1.12
2022-11-13T06:34:00.471Z,1.06
2022-11-13T06:36:30.597Z,1.01
2022-11-13T06:38:58.035Z,0.90
2022-11-13T06:41:31.116Z,1.20
2022-11-13T06:44:02.594Z,1.29
2022-11-13T06:46:30.591Z,1.15
2022-11-13T06:48:57.468Z,1.14
2022-11-13T06:51:26.720Z,0.86
2022-11-13T06:53:53.715Z,1.27
2022-11-13T06:56:21.516Z,1.30
2022-11-13T06:58:48.319Z,1.47
2022-11-13T07:01:20.298Z,1.34
2022-11-13T07:03:47.684Z,1.33
2022-11-13T07:06:17.262Z,1.27
2022-11-13T07:08:44.848Z,1.47
2022-11-13T07:11:17.659Z,1.53
2022-11-13T07:13:44.963Z,1.49
2022-11-13T07:16:17.367Z,1.58
2022-11-13T07:18:54.127Z,1.42
2022-11-13T07:21:22.459Z,1.64
2022-11-13T07:23:49.808Z,1.59
2022-11-13T07:26:16.882Z,1.40
2022-11-13T07:28:43.603Z,1.14
2022-11-13T07:31:12.819Z,1.32
2022-11-13T07:33:39.482Z,1.73
2022-11-13T07:36:06.963Z,1.80
2022-11-13T07:38:34.150Z,1.52
2022-11-13T07:41:01.042Z,1.44
2022-11-13T07:43:27.804Z,1.43
2022-11-13T07:45:57.458Z,1.40
2022-11-13T07:48:24.530Z,1.55
2022-11-13T07:50:51.654Z,1.63
2022-11-13T07:53:19.331Z,1.40
2022-11-13T07:55:46.184Z,1.52
2022-11-13T07:58:12.923Z,1.83
2022-11-13T08:00:40.124Z,1.81
2022-11-13T08:03:09.170Z,1.82
2022-11-13T08:05:36.591Z,1.89
2022-11-13T08:08:03.475Z,2.14
2022-11-13T08:10:30.473Z,2.09
2022-11-13T08:13:08.889Z,1.95
2022-11-13T08:15:36.042Z,1.93
2022-11-13T08:18:04.618Z,2.10
2022-11-13T08:20:32.500Z,2.40
2022-11-13T08:23:01.005Z,2.24
2022-11-13T08:25:29.057Z,2.44
2022-11-13T08:27:56.616Z,2.58
2022-11-13T08:30:24.874Z,2.86
2022-11-13T08:32:52.158Z,2.87
2022-11-13T08:35:20.711Z,3.04
2022-11-13T08:37:50.223Z,3.13
2022-11-13T08:40:16.924Z,2.84
2022-11-13T08:42:43.584Z,3.06
2022-11-13T08:45:10.954Z,3.11
2022-11-13T08:47:37.663Z,3.04
2022-11-13T08:50:06.108Z,3.46
2022-11-13T08:52:32.801Z,2.84
2022-11-13T08:54:59.474Z,3.06
2022-11-13T08:57:26.087Z,3.45
2022-11-13T08:59:52.761Z,3.44
2022-11-13T09:02:19.400Z,3.38
2022-11-13T09:04:46.299Z,3.21
2022-11-13T09:07:13.251Z,3.24
2022-11-13T09:09:39.934Z,2.70
2022-11-13T09:12:06.641Z,2.84
2022-11-13T09:14:33.311Z,3.23
2022-11-13T09:17:00.106Z,3.62
2022-11-13T09:19:27.032Z,3.48
2022-11-13T09:21:54.021Z,3.49
2022-11-13T09:24:20.620Z,2.88
2022-11-13T09:26:47.243Z,3.21
2022-11-13T09:29:13.908Z,3.71
2022-11-13T09:31:41.338Z,3.58
2022-11-13T09:34:08.659Z,3.76
2022-11-13T09:36:35.584Z,3.52
2022-11-13T09:39:02.496Z,3.44
2022-11-13T09:41:34.760Z,3.59
2022-11-13T09:44:13.491Z,4.05
2022-11-13T09:46:49.149Z,3.91
2022-11-13T09:49:27.069Z,3.62
2022-11-13T09:51:56.626Z,3.79
2022-11-13T09:54:23.784Z,3.68
2022-11-13T09:57:28.050Z,4.10
2022-11-13T10:00:01.876Z,4.20
2022-11-13T10:03:06.926Z,4.22
2022-11-13T10:05:55.102Z,4.56
2022-11-13T10:08:28.639Z,4.55
2022-11-13T10:11:13.702Z,4.87
2022-11-13T10:13:53.063Z,5.13
2022-11-13T10:16:40.939Z,5.16
2022-11-13T10:19:25.927Z,5.69
2022-11-13T10:22:19.589Z,5.49
2022-11-13T10:24:50.199Z,4.71
2022-11-13T10:27:16.858Z,5.14
2022-11-13T10:29:48.851Z,5.40
2022-11-13T10:32:15.895Z,5.63
2022-11-13T10:34:48.312Z,5.57
2022-11-13T10:37:50.296Z,5.44
2022-11-13T10:40:28.325Z,4.80
2022-11-13T10:43:05.351Z,4.75
2022-11-13T10:45:32.231Z,5.43
2022-11-13T10:48:06.142Z,5.31
2022-11-13T10:50:33.601Z,5.24
2022-11-13T10:53:00.370Z,4.88
2022-11-13T10:55:36.670Z,4.94
2022-11-13T10:58:12.992Z,5.67
2022-11-13T11:00:44.903Z,5.91
2022-11-13T11:03:18.738Z,6.16
2022-11-13T11:06:02.856Z,6.40
2022-11-13T11:08:33.090Z,6.77
2022-11-13T11:11:31.495Z,7.12
2022-11-13T11:14:16.907Z,6.33
2022-11-13T11:16:46.215Z,5.12
2022-11-13T11:19:15.469Z,5.94
2022-11-13T11:21:43.812Z,5.75
2022-11-13T11:24:21.256Z,5.82
2022-11-13T11:26:55.967Z,5.85
2022-11-13T11:29:35.090Z,5.98
2022-11-13T11:32:27.670Z,6.92
2022-11-13T11:35:08.169Z,7.35
2022-11-13T11:38:04.838Z,7.32
2022-11-13T11:40:38.283Z,6.44
2022-11-13T11:43:38.975Z,6.33
2022-11-13T11:46:08.963Z,6.31
2022-11-13T11:48:36.034Z,6.02
2022-11-13T11:51:17.935Z,5.94
2022-11-13T11:54:11.280Z,6.20
2022-11-13T11:56:52.452Z,6.06
2022-11-13T11:59:57.515Z,6.83
2022-11-13T12:02:24.028Z,6.69
2022-11-13T12:05:23.990Z,6.69
2022-11-13T12:08:15.518Z,6.35
2022-11-13T12:10:41.997Z,6.92
2022-11-13T12:13:17.671Z,6.91
2022-11-13T12:15:47.204Z,7.39
2022-11-13T12:18:36.889Z,6.59
2022-11-13T12:21:23.547Z,7.26
2022-11-13T12:24:05.836Z,6.80
2022-11-13T12:26:44.327Z,7.15
2022-11-13T12:29:23.008Z,6.90
2022-11-13T12:32:26.244Z,6.53
2022-11-13T12:35:02.922Z,6.73
2022-11-13T12:37:51.158Z,7.04
2022-11-13T12:40:48.057Z,7.19
2022-11-13T12:43:31.028Z,6.68
2022-11-13T12:46:08.292Z,6.64
2022-11-13T12:48:43.033Z,6.73
2022-11-13T12:51:12.735Z,6.88
2022-11-13T12:53:53.718Z,6.43
2022-11-13T12:56:20.259Z,6.13
2022-11-13T12:59:24.172Z,6.41
2022-11-13T13:01:51.939Z,6.58
2022-11-13T13:04:50.029Z,6.55
2022-11-13T13:07:19.360Z,6.54
2022-11-13T13:10:23.515Z,6.47
2022-11-13T13:13:12.363Z,6.55
2022-11-13T13:15:43.402Z,6.22
2022-11-13T13:18:11.813Z,6.38
2022-11-13T13:20:46.766Z,6.10
2022-11-13T13:23:24.818Z,6.38
2022-11-13T13:26:02.971Z,6.49
2022-11-13T13:28:31.745Z,6.50
2022-11-13T13:31:08.366Z,6.62
2022-11-13T13:33:37.768Z,6.19
2022-11-13T13:36:17.939Z,5.98
2022-11-13T13:38:58.662Z,5.93
2022-11-13T13:41:30.846Z,5.96
2022-11-13T13:44:35.703Z,6.04
2022-11-13T13:47:16.234Z,5.98
2022-11-13T13:49:43.320Z,5.64
2022-11-13T13:52:15.612Z,5.39
2022-11-13T13:54:44.079Z,5.51
2022-11-13T13:57:16.430Z,5.12
2022-11-13T13:59:46.934Z,5.39
2022-11-13T14:02:17.319Z,5.61
2022-11-13T14:04:46.672Z,5.54
2022-11-13T14:07:30.402Z,5.82
2022-11-13T14:10:17.355Z,5.77
2022-11-13T14:12:45.429Z,5.55
2022-11-13T14:15:33.156Z,6.19
2022-11-13T14:18:17.318Z,6.22
2022-11-13T14:20:48.512Z,5.97
2022-11-13T14:23:30.785Z,5.95
2022-11-13T14:25:58.148Z,5.98
2022-11-13T14:28:31.358Z,5.89
2022-11-13T14:31:04.879Z,5.90
2022-11-13T14:33:35.113Z,5.81
2022-11-13T14:36:03.215Z,5.81
2022-11-13T14:38:34.044Z,5.94
2022-11-13T14:41:02.466Z,5.94
2022-11-13T14:43:31.609Z,5.79
2022-11-13T14:46:04.091Z,6.04
2022-11-13T14:48:33.116Z,6.22
2022-11-13T14:51:05.407Z,5.77
2022-11-13T14:53:37.587Z,5.33
2022-11-13T14:56:10.942Z,5.43
2022-11-13T14:58:37.462Z,5.99
2022-11-13T15:01:24.665Z,5.85
2022-11-13T15:03:52.405Z,6.02
2022-11-13T15:06:24.544Z,6.01
2022-11-13T15:08:55.168Z,6.10
2022-11-13T15:11:24.199Z,6.01
2022-11-13T15:13:50.892Z,5.99
2022-11-13T15:16:22.154Z,6.16
2022-11-13T15:18:50.634Z,6.06
2022-11-13T15:21:18.454Z,5.72
2022-11-13T15:23:45.087Z,5.84
2022-11-13T15:26:12.801Z,5.23
2022-11-13T15:28:39.783Z,5.71
2022-11-13T15:31:18.751Z,5.82
2022-11-13T15:33:45.656Z,5.68
2022-11-13T15:36:12.274Z,5.67
2022-11-13T15:38:39.259Z,5.72
2022-11-13T15:41:16.231Z,5.75
2022-11-13T15:43:45.551Z,5.47
2022-11-13T15:46:17.974Z,5.20
2022-11-13T15:48:45.690Z,5.64
2022-11-13T15:51:43.338Z,5.68
2022-11-13T15:54:19.079Z,5.65
2022-11-13T15:56:46.875Z,5.62
2022-11-13T15:59:14.480Z,5.26
2022-11-13T16:01:41.905Z,4.94
2022-11-13T16:04:09.507Z,4.89
2022-11-13T16:06:36.300Z,4.75
2022-11-13T16:09:04.290Z,5.09
2022-11-13T16:11:32.956Z,5.04
2022-11-13T16:13:59.891Z,5.04
2022-11-13T16:16:36.367Z,4.97
2022-11-13T16:19:04.125Z,4.74
2022-11-13T16:21:30.955Z,4.60
2022-11-13T16:23:57.579Z,4.72
2022-11-13T16:26:25.956Z,4.47
2022-11-13T16:29:13.891Z,4.87
2022-11-13T16:31:41.500Z,5.11
2022-11-13T16:34:08.178Z,5.15
2022-11-13T16:36:34.881Z,5.23
2022-11-13T16:39:01.682Z,5.37
2022-11-13T16:41:28.241Z,5.20
2022-11-13T16:43:54.840Z,5.32
2022-11-13T16:46:21.478Z,5.12
2022-11-13T16:48:48.177Z,5.05
2022-11-13T16:51:16.123Z,5.13
2022-11-13T16:53:43.387Z,5.11
2022-11-13T16:56:20.739Z,5.26
2022-11-13T16:58:47.735Z,5.07
2022-11-13T17:01:16.540Z,5.00
2022-11-13T17:03:43.839Z,4.86
2022-11-13T17:06:26.643Z,4.93
2022-11-13T17:08:55.813Z,4.48
2022-11-13T17:11:24.408Z,4.41
2022-11-13T17:13:57.483Z,4.55
2022-11-13T17:16:26.188Z,4.85
2022-11-13T17:18:53.394Z,5.01
2022-11-13T17:21:25.819Z,5.13
2022-11-13T17:23:56.949Z,5.03
2022-11-13T17:26:24.067Z,5.15
2022-11-13T17:28:51.168Z,5.15
2022-11-13T17:31:18.417Z,4.95
2022-11-13T17:33:45.050Z,5.06
2022-11-13T17:36:12.163Z,4.81
2022-11-13T17:38:39.362Z,4.82
2022-11-13T17:41:09.064Z,4.94
2022-11-13T17:43:36.882Z,4.75
2022-11-13T17:46:05.093Z,4.98
2022-11-13T17:48:34.880Z,4.98
2022-11-13T17:51:05.470Z,4.59
2022-11-13T17:53:33.065Z,4.69
2022-11-13T17:56:02.090Z,4.88
2022-11-13T17:58:29.435Z,4.79
2022-11-13T18:01:05.231Z,5.01
2022-11-13T18:03:32.112Z,4.20
2022-11-13T18:05:58.765Z,4.32
2022-11-13T18:08:25.484Z,4.69
2022-11-13T18:10:52.176Z,4.59
2022-11-13T18:13:18.812Z,4.47
2022-11-13T18:15:45.434Z,4.34
2022-11-13T18:18:12.082Z,4.37
2022-11-13T18:20:40.846Z,4.37
2022-11-13T18:23:07.907Z,4.32
2022-11-13T18:25:39.461Z,4.69
2022-11-13T18:28:06.666Z,4.56
2022-11-13T18:30:33.348Z,4.55
2022-11-13T18:32:59.943Z,4.48
2022-11-13T18:35:26.583Z,4.56
2022-11-13T18:37:53.287Z,4.75
2022-11-13T18:40:20.005Z,4.43
2022-11-13T18:42:46.702Z,4.37
2022-11-13T18:45:16.307Z,4.39
2022-11-13T18:47:43.115Z,4.35
2022-11-13T18:50:09.763Z,4.64
2022-11-13T18:52:36.550Z,4.21
2022-11-13T18:55:03.659Z,4.21
2022-11-13T18:57:30.286Z,4.24
2022-11-13T18:59:56.904Z,4.09
2022-11-13T19:02:23.901Z,4.12
2022-11-13T19:04:50.504Z,4.13
2022-11-13T19:07:17.460Z,4.01
2022-11-13T19:09:46.056Z,3.85
2022-11-13T19:12:12.741Z,3.98
2022-11-13T19:14:39.314Z,3.79
2022-11-13T19:17:05.996Z,3.96
2022-11-13T19:19:32.903Z,3.78
2022-11-13T19:21:59.472Z,3.81
2022-11-13T19:24:26.599Z,3.78
2022-11-13T19:26:53.152Z,3.83
2022-11-13T19:29:20.297Z,4.17
2022-11-13T19:31:48.499Z,4.33
2022-11-13T19:34:15.377Z,3.92
2022-11-13T19:36:44.843Z,3.85
2022-11-13T19:39:11.511Z,3.74
2022-11-13T19:41:38.214Z,3.82
2022-11-13T19:44:06.461Z,3.72
2022-11-13T19:46:34.032Z,3.85
2022-11-13T19:49:00.726Z,3.70
2022-11-13T19:51:28.221Z,3.34
2022-11-13T19:53:57.680Z,3.46
2022-11-13T19:56:25.674Z,3.46
2022-11-13T19:58:52.935Z,3.54
2022-11-13T20:01:22.895Z,3.64
2022-11-13T20:03:57.991Z,3.58
2022-11-13T20:06:26.103Z,3.53
2022-11-13T20:08:52.988Z,3.45
2022-11-13T20:11:20.298Z,3.58
2022-11-13T20:13:47.539Z,3.44
2022-11-13T20:16:15.482Z,3.47
2022-11-13T20:18:43.149Z,3.56
2022-11-13T20:21:10.637Z,3.66
2022-11-13T20:23:37.623Z,3.43
2022-11-13T20:26:10.183Z,3.33
2022-11-13T20:28:36.817Z,3.34
2022-11-13T20:31:04.878Z,3.50
2022-11-13T20:33:33.090Z,3.55
2022-11-13T20:35:59.740Z,3.39
2022-11-13T20:38:26.787Z,3.64
2022-11-13T20:40:53.534Z,3.66
2022-11-13T20:43:20.243Z,3.85
2022-11-13T20:45:46.843Z,3.52
2022-11-13T20:48:13.758Z,3.49
2022-11-13T20:50:40.390Z,3.84
2022-11-13T20:53:07.030Z,3.89
2022-11-13T20:55:33.601Z,3.35
2022-11-13T20:58:00.220Z,3.77
2022-11-13T21:00:26.896Z,3.77
2022-11-13T21:03:03.695Z,3.90
2022-11-13T21:05:30.368Z,3.93
2022-11-13T21:07:56.963Z,3.98
2022-11-13T21:10:23.565Z,4.05
2022-11-13T21:12:50.120Z,4.02
2022-11-13T21:15:18.068Z,4.05
2022-11-13T21:17:44.722Z,3.93
2022-11-13T21:20:11.836Z,4.17
2022-11-13T21:22:39.576Z,4.12
2022-11-13T21:25:06.619Z,4.17
2022-11-13T21:27:33.357Z,3.93
2022-11-13T21:29:59.998Z,3.77
2022-11-13T21:32:26.626Z,4.01
2022-11-13T21:34:58.889Z,3.94
2022-11-13T21:37:26.562Z,3.85
2022-11-13T21:39:53.183Z,3.91
2022-11-13T21:42:20.000Z,3.40
2022-11-13T21:44:46.626Z,3.21
2022-11-13T21:47:13.347Z,3.43
2022-11-13T21:49:40.007Z,3.71
2022-11-13T21:52:06.570Z,3.68
2022-11-13T21:54:33.167Z,3.15
2022-11-13T21:56:59.767Z,3.01
2022-11-13T21:59:26.484Z,3.15
2022-11-13T22:01:53.118Z,2.80
2022-11-13T22:04:19.729Z,2.61
2022-11-13T22:06:48.474Z,3.27
2022-11-13T22:09:20.903Z,3.33
2022-11-13T22:11:47.822Z,3.43
2022-11-13T22:14:14.878Z,3.40
2022-11-13T22:16:44.027Z,3.39
2022-11-13T22:19:14.037Z,2.80
2022-11-13T22:21:41.366Z,3.34
2022-11-13T22:24:08.938Z,3.24
2022-11-13T22:26:41.708Z,3.29
2022-11-13T22:29:09.038Z,2.99
2022-11-13T22:31:36.728Z,3.38
2022-11-13T22:34:03.707Z,3.45
2022-11-13T22:36:32.950Z,3.45
2022-11-13T22:39:00.328Z,3.67
2022-11-13T22:41:31.118Z,3.73
2022-11-13T22:44:06.818Z,3.82
2022-11-13T22:46:35.309Z,3.83
2022-11-13T22:49:04.805Z,3.86
2022-11-13T22:51:38.182Z,3.85
2022-11-13T22:54:07.168Z,3.66
2022-11-13T22:56:36.233Z,3.58
2022-11-13T22:59:05.007Z,3.36
2022-11-13T23:01:34.467Z,3.26
2022-11-13T23:04:03.720Z,3.40
2022-11-13T23:06:33.268Z,3.12
2022-11-13T23:09:00.625Z,3.35
2022-11-13T23:11:33.238Z,3.32
2022-11-13T23:14:05.578Z,3.46
2022-11-13T23:16:33.579Z,3.50
2022-11-13T23:19:01.348Z,3.13
2022-11-13T23:21:29.370Z,2.87
2022-11-13T23:23:56.785Z,2.84
2022-11-13T23:26:24.505Z,2.77
2022-11-13T23:28:51.594Z,2.85
2022-11-13T23:31:18.712Z,2.97
2022-11-13T23:33:45.486Z,3.11
2022-11-13T23:36:14.294Z,3.21
2022-11-13T23:38:41.809Z,2.84
2022-11-13T23:41:09.399Z,3.13
2022-11-13T23:44:06.950Z,2.93
2022-11-13T23:46:23.127Z,3.20
2022-11-13T23:48:49.702Z,2.91
2022-11-13T23:51:16.291Z,2.74
2022-11-13T23:53:42.918Z,2.62
2022-11-13T23:56:09.549Z,2.58
2022-11-13T23:58:36.239Z,2.49
